sensor_id;sensor_type;location;lat;lon;timestamp;P1;durP1;ratioP1;P2;durP2;ratioP2
40048;SDS011;54524;55.740;37.544;2022-09-09T00:01:04;2.3;;;0.7;;
40048;SDS011;54524;55.740;37.544;2022-09-09T00:02:11;2.3;;;0.7;;
40048;SDS011;54524;55.740;37.544;2022-09-09T00:03:18;1.3;;;0.6;;
40048;SDS011;54524;55.740;37.544;2022-09-09T00:04:23;1.3;;;0.6;;
40048;SDS011;54524;55.740;37.544;2022-09-09T00:05:28;1.4;;;0.6;;
40048;SDS011;54524;55.740;37.544;2022-09-09T00:06:30;1.3;;;0.8;;
40048;SDS011;54524;55.740;37.544;2022-09-09T00:07:35;1.3;;;0.8;;
40048;SDS011;54524;55.740;37.544;2022-09-09T00:08:41;1.3;;;0.8;;
40048;SDS011;54524;55.740;37.544;2022-09-09T00:09:46;1;;;0.6;;
40048;SDS011;54524;55.740;37.544;2022-09-09T00:11:03;1;;;0.6;;
40048;SDS011;54524;55.740;37.544;2022-09-09T00:12:08;1;;;0.6;;
40048;SDS011;54524;55.740;37.544;2022-09-09T00:13:14;1.3;;;0.6;;
40048;SDS011;54524;55.740;37.544;2022-09-09T00:14:18;1.6;;;0.6;;
40048;SDS011;54524;55.740;37.544;2022-09-09T00:15:23;1.6;;;0.6;;
40048;SDS011;54524;55.740;37.544;2022-09-09T00:16:25;0.8;;;0.6;;
40048;SDS011;54524;55.740;37.544;2022-09-09T00:17:31;0.8;;;0.6;;
40048;SDS011;54524;55.740;37.544;2022-09-09T00:18:38;0.8;;;0.6;;
40048;SDS011;54524;55.740;37.544;2022-09-09T00:19:41;0.9;;;0.6;;
40048;SDS011;54524;55.740;37.544;2022-09-09T00:21:05;0.9;;;0.6;;
40048;SDS011;54524;55.740;37.544;2022-09-09T00:22:12;1.9;;;0.7;;
40048;SDS011;54524;55.740;37.544;2022-09-09T00:23:17;2;;;0.7;;
40048;SDS011;54524;55.740;37.544;2022-09-09T00:24:23;2.1;;;0.8;;
40048;SDS011;54524;55.740;37.544;2022-09-09T00:25:27;1.5;;;0.6;;
40048;SDS011;54524;55.740;37.544;2022-09-09T00:26:31;1.6;;;0.7;;
40048;SDS011;54524;55.740;37.544;2022-09-09T00:27:34;1.6;;;0.7;;
40048;SDS011;54524;55.740;37.544;2022-09-09T00:28:37;1.4;;;0.7;;
40048;SDS011;54524;55.740;37.544;2022-09-09T00:29:41;1.5;;;0.7;;
40048;SDS011;54524;55.740;37.544;2022-09-09T00:31:08;2.6;;;0.7;;
40048;SDS011;54524;55.740;37.544;2022-09-09T00:32:12;2.6;;;0.7;;
40048;SDS011;54524;55.740;37.544;2022-09-09T00:33:12;2.6;;;0.6;;
40048;SDS011;54524;55.740;37.544;2022-09-09T00:34:16;0;;;0;;
40048;SDS011;54524;55.740;37.544;2022-09-09T00:35:22;1.5;;;0.8;;
40048;SDS011;54524;55.740;37.544;2022-09-09T00:36:24;1.6;;;0.8;;
40048;SDS011;54524;55.740;37.544;2022-09-09T00:37:27;1.8;;;1;;
40048;SDS011;54524;55.740;37.544;2022-09-09T00:38:31;2;;;1;;
40048;SDS011;54524;55.740;37.544;2022-09-09T00:39:34;2;;;1;;
40048;SDS011;54524;55.740;37.544;2022-09-09T00:41:04;2.3;;;0.9;;
40048;SDS011;54524;55.740;37.544;2022-09-09T00:42:10;2.5;;;0.9;;
40048;SDS011;54524;55.740;37.544;2022-09-09T00:43:18;1.4;;;1.1;;
40048;SDS011;54524;55.740;37.544;2022-09-09T00:44:27;1.9;;;1.2;;
40048;SDS011;54524;55.740;37.544;2022-09-09T00:45:36;2;;;1.2;;
40048;SDS011;54524;55.740;37.544;2022-09-09T00:46:41;3.4;;;1.1;;
40048;SDS011;54524;55.740;37.544;2022-09-09T00:47:47;3.1;;;1;;
40048;SDS011;54524;55.740;37.544;2022-09-09T00:48:51;2.2;;;1;;
40048;SDS011;54524;55.740;37.544;2022-09-09T00:49:57;2.4;;;1.1;;
40048;SDS011;54524;55.740;37.544;2022-09-09T00:51:05;2.4;;;1.1;;
40048;SDS011;54524;55.740;37.544;2022-09-09T00:52:13;3.2;;;1;;
40048;SDS011;54524;55.740;37.544;2022-09-09T00:53:21;3.2;;;1;;
40048;SDS011;54524;55.740;37.544;2022-09-09T00:54:30;3.2;;;1;;
40048;SDS011;54524;55.740;37.544;2022-09-09T00:55:33;2.7;;;1.2;;
40048;SDS011;54524;55.740;37.544;2022-09-09T00:56:42;2.7;;;1.2;;
40048;SDS011;54524;55.740;37.544;2022-09-09T00:57:45;2.7;;;1.2;;
40048;SDS011;54524;55.740;37.544;2022-09-09T00:58:47;2.6;;;1.1;;
40048;SDS011;54524;55.740;37.544;2022-09-09T00:59:57;2.4;;;1.1;;
40048;SDS011;54524;55.740;37.544;2022-09-09T01:01:04;2.4;;;1.1;;
40048;SDS011;54524;55.740;37.544;2022-09-09T01:02:07;2.5;;;1.1;;
40048;SDS011;54524;55.740;37.544;2022-09-09T01:03:17;2.3;;;1.1;;
40048;SDS011;54524;55.740;37.544;2022-09-09T01:04:22;3.2;;;1.1;;
40048;SDS011;54524;55.740;37.544;2022-09-09T01:05:25;3.2;;;1.1;;
40048;SDS011;54524;55.740;37.544;2022-09-09T01:06:29;3.2;;;1.1;;
40048;SDS011;54524;55.740;37.544;2022-09-09T01:07:31;2.5;;;1;;
40048;SDS011;54524;55.740;37.544;2022-09-09T01:08:36;2.5;;;1;;
40048;SDS011;54524;55.740;37.544;2022-09-09T01:09:42;2.4;;;1;;
40048;SDS011;54524;55.740;37.544;2022-09-09T01:11:02;4.2;;;1.1;;
40048;SDS011;54524;55.740;37.544;2022-09-09T01:12:07;4.2;;;1.1;;
40048;SDS011;54524;55.740;37.544;2022-09-09T01:13:11;4.1;;;1.1;;
40048;SDS011;54524;55.740;37.544;2022-09-09T01:14:16;2.8;;;1;;
40048;SDS011;54524;55.740;37.544;2022-09-09T01:15:21;2.7;;;1;;
40048;SDS011;54524;55.740;37.544;2022-09-09T01:16:23;2.7;;;1;;
40048;SDS011;54524;55.740;37.544;2022-09-09T01:17:24;2.1;;;0.9;;
40048;SDS011;54524;55.740;37.544;2022-09-09T01:18:27;2;;;0.9;;
40048;SDS011;54524;55.740;37.544;2022-09-09T01:19:33;2;;;0.9;;
40048;SDS011;54524;55.740;37.544;2022-09-09T01:21:05;3.1;;;1.1;;
40048;SDS011;54524;55.740;37.544;2022-09-09T01:22:09;3.1;;;1.1;;
40048;SDS011;54524;55.740;37.544;2022-09-09T01:23:16;3.9;;;1.1;;
40048;SDS011;54524;55.740;37.544;2022-09-09T01:24:22;4.4;;;1.1;;
40048;SDS011;54524;55.740;37.544;2022-09-09T01:25:28;4.6;;;1.2;;
40048;SDS011;54524;55.740;37.544;2022-09-09T01:26:30;3.5;;;1.4;;
40048;SDS011;54524;55.740;37.544;2022-09-09T01:27:31;4.3;;;1.5;;
40048;SDS011;54524;55.740;37.544;2022-09-09T01:28:32;4.2;;;1.5;;
40048;SDS011;54524;55.740;37.544;2022-09-09T01:29:35;4.3;;;1.5;;
40048;SDS011;54524;55.740;37.544;2022-09-09T01:31:04;4;;;1.4;;
40048;SDS011;54524;55.740;37.544;2022-09-09T01:32:37;4;;;1.4;;
40048;SDS011;54524;55.740;37.544;2022-09-09T01:33:38;4.1;;;1.3;;
40048;SDS011;54524;55.740;37.544;2022-09-09T01:34:38;3.8;;;1.2;;
40048;SDS011;54524;55.740;37.544;2022-09-09T01:35:43;4.2;;;1.6;;
40048;SDS011;54524;55.740;37.544;2022-09-09T01:36:47;4.2;;;1.6;;
40048;SDS011;54524;55.740;37.544;2022-09-09T01:37:51;4.3;;;1.6;;
40048;SDS011;54524;55.740;37.544;2022-09-09T01:38:52;4.1;;;1.5;;
40048;SDS011;54524;55.740;37.544;2022-09-09T01:39:53;2.9;;;1.4;;
40048;SDS011;54524;55.740;37.544;2022-09-09T01:41:03;4.5;;;1.4;;
40048;SDS011;54524;55.740;37.544;2022-09-09T01:42:04;4.4;;;1.4;;
40048;SDS011;54524;55.740;37.544;2022-09-09T01:43:05;3;;;1.4;;
40048;SDS011;54524;55.740;37.544;2022-09-09T01:44:06;3;;;1.4;;
40048;SDS011;54524;55.740;37.544;2022-09-09T01:45:08;3.1;;;1.4;;
40048;SDS011;54524;55.740;37.544;2022-09-09T01:46:09;4.2;;;1.4;;
40048;SDS011;54524;55.740;37.544;2022-09-09T01:47:10;4.2;;;1.4;;
40048;SDS011;54524;55.740;37.544;2022-09-09T01:48:10;4.2;;;1.4;;
40048;SDS011;54524;55.740;37.544;2022-09-09T01:49:11;2.5;;;1.3;;
40048;SDS011;54524;55.740;37.544;2022-09-09T01:51:03;2.1;;;1.2;;
40048;SDS011;54524;55.740;37.544;2022-09-09T01:52:04;2.1;;;1.1;;
40048;SDS011;54524;55.740;37.544;2022-09-09T01:53:04;2.1;;;1.1;;
40048;SDS011;54524;55.740;37.544;2022-09-09T01:54:05;2.2;;;1.1;;
40048;SDS011;54524;55.740;37.544;2022-09-09T01:55:07;1.8;;;1;;
40048;SDS011;54524;55.740;37.544;2022-09-09T01:56:11;2;;;1;;
40048;SDS011;54524;55.740;37.544;2022-09-09T01:57:15;2.3;;;1;;
40048;SDS011;54524;55.740;37.544;2022-09-09T01:58:21;2.5;;;1.2;;
40048;SDS011;54524;55.740;37.544;2022-09-09T02:01:05;1.9;;;1.1;;
40048;SDS011;54524;55.740;37.544;2022-09-09T02:02:09;1.8;;;1.1;;
40048;SDS011;54524;55.740;37.544;2022-09-09T02:03:13;1.8;;;1.1;;
40048;SDS011;54524;55.740;37.544;2022-09-09T02:04:22;2.1;;;1.1;;
40048;SDS011;54524;55.740;37.544;2022-09-09T02:05:27;2.1;;;1.1;;
40048;SDS011;54524;55.740;37.544;2022-09-09T02:06:31;2.3;;;1.2;;
40048;SDS011;54524;55.740;37.544;2022-09-09T02:07:37;4.9;;;1.2;;
40048;SDS011;54524;55.740;37.544;2022-09-09T02:08:39;4.9;;;1.2;;
40048;SDS011;54524;55.740;37.544;2022-09-09T02:09:40;4.9;;;1.2;;
40048;SDS011;54524;55.740;37.544;2022-09-09T02:11:04;4.2;;;1.2;;
40048;SDS011;54524;55.740;37.544;2022-09-09T02:12:08;4.2;;;1.2;;
40048;SDS011;54524;55.740;37.544;2022-09-09T02:13:10;3.6;;;1.2;;
40048;SDS011;54524;55.740;37.544;2022-09-09T02:14:12;3.6;;;1.2;;
40048;SDS011;54524;55.740;37.544;2022-09-09T02:15:18;3.6;;;1.2;;
40048;SDS011;54524;55.740;37.544;2022-09-09T02:16:21;4;;;1;;
40048;SDS011;54524;55.740;37.544;2022-09-09T02:17:25;4;;;1;;
40048;SDS011;54524;55.740;37.544;2022-09-09T02:18:27;4.1;;;1;;
40048;SDS011;54524;55.740;37.544;2022-09-09T02:19:29;3.7;;;1.2;;
40048;SDS011;54524;55.740;37.544;2022-09-09T02:21:02;3.3;;;1.2;;
40048;SDS011;54524;55.740;37.544;2022-09-09T02:22:03;2.4;;;0.9;;
40048;SDS011;54524;55.740;37.544;2022-09-09T02:23:04;2.4;;;0.9;;
40048;SDS011;54524;55.740;37.544;2022-09-09T02:24:06;2.4;;;0.9;;
40048;SDS011;54524;55.740;37.544;2022-09-09T02:25:10;2.6;;;1.3;;
40048;SDS011;54524;55.740;37.544;2022-09-09T02:26:12;2.6;;;1.3;;
40048;SDS011;54524;55.740;37.544;2022-09-09T02:27:15;2.6;;;1.2;;
40048;SDS011;54524;55.740;37.544;2022-09-09T02:28:17;3.6;;;1.1;;
40048;SDS011;54524;55.740;37.544;2022-09-09T02:29:19;4;;;1.2;;
40048;SDS011;54524;55.740;37.544;2022-09-09T02:31:03;2.9;;;1.1;;
40048;SDS011;54524;55.740;37.544;2022-09-09T02:32:05;3.4;;;1.1;;
40048;SDS011;54524;55.740;37.544;2022-09-09T02:33:06;3.4;;;1.1;;
40048;SDS011;54524;55.740;37.544;2022-09-09T02:34:07;3.2;;;1.2;;
40048;SDS011;54524;55.740;37.544;2022-09-09T02:35:12;3.5;;;1.1;;
40048;SDS011;54524;55.740;37.544;2022-09-09T02:36:13;3.5;;;1.1;;
40048;SDS011;54524;55.740;37.544;2022-09-09T02:37:17;4.2;;;1.1;;
40048;SDS011;54524;55.740;37.544;2022-09-09T02:38:18;4.3;;;1.1;;
40048;SDS011;54524;55.740;37.544;2022-09-09T02:39:20;4.7;;;1.2;;
40048;SDS011;54524;55.740;37.544;2022-09-09T02:41:03;6.3;;;1.4;;
40048;SDS011;54524;55.740;37.544;2022-09-09T02:42:04;6.3;;;1.4;;
40048;SDS011;54524;55.740;37.544;2022-09-09T02:43:04;6.3;;;1.5;;
40048;SDS011;54524;55.740;37.544;2022-09-09T02:44:08;3.8;;;1.2;;
40048;SDS011;54524;55.740;37.544;2022-09-09T02:45:10;3.8;;;1.3;;
40048;SDS011;54524;55.740;37.544;2022-09-09T02:46:16;3;;;1.2;;
40048;SDS011;54524;55.740;37.544;2022-09-09T02:47:25;5;;;1.2;;
40048;SDS011;54524;55.740;37.544;2022-09-09T02:48:30;5.1;;;1.2;;
40048;SDS011;54524;55.740;37.544;2022-09-09T02:49:35;3.5;;;1.4;;
40048;SDS011;54524;55.740;37.544;2022-09-09T02:51:06;3.8;;;1.4;;
40048;SDS011;54524;55.740;37.544;2022-09-09T02:52:12;3.9;;;1.4;;
40048;SDS011;54524;55.740;37.544;2022-09-09T02:53:16;3.7;;;1.3;;
40048;SDS011;54524;55.740;37.544;2022-09-09T02:54:20;3.7;;;1.3;;
40048;SDS011;54524;55.740;37.544;2022-09-09T02:55:23;4;;;1.3;;
40048;SDS011;54524;55.740;37.544;2022-09-09T02:56:25;2;;;1.2;;
40048;SDS011;54524;55.740;37.544;2022-09-09T02:57:29;2;;;1.1;;
40048;SDS011;54524;55.740;37.544;2022-09-09T02:58:31;1.9;;;1.1;;
40048;SDS011;54524;55.740;37.544;2022-09-09T02:59:32;3.1;;;1;;
40048;SDS011;54524;55.740;37.544;2022-09-09T03:01:03;4.1;;;1;;
40048;SDS011;54524;55.740;37.544;2022-09-09T03:02:04;3.4;;;1.5;;
40048;SDS011;54524;55.740;37.544;2022-09-09T03:03:05;3.4;;;1.5;;
40048;SDS011;54524;55.740;37.544;2022-09-09T03:04:06;3.4;;;1.5;;
40048;SDS011;54524;55.740;37.544;2022-09-09T03:05:06;4;;;1.1;;
40048;SDS011;54524;55.740;37.544;2022-09-09T03:06:07;4;;;1.1;;
40048;SDS011;54524;55.740;37.544;2022-09-09T03:07:08;4.2;;;1.2;;
40048;SDS011;54524;55.740;37.544;2022-09-09T03:08:09;4.1;;;1.1;;
40048;SDS011;54524;55.740;37.544;2022-09-09T03:09:10;3.6;;;1;;
40048;SDS011;54524;55.740;37.544;2022-09-09T03:11:03;3.6;;;1;;
40048;SDS011;54524;55.740;37.544;2022-09-09T03:12:03;3.7;;;1.2;;
40048;SDS011;54524;55.740;37.544;2022-09-09T03:13:04;3.4;;;1.2;;
40048;SDS011;54524;55.740;37.544;2022-09-09T03:14:05;3.2;;;1.2;;
40048;SDS011;54524;55.740;37.544;2022-09-09T03:15:07;4.2;;;1.3;;
40048;SDS011;54524;55.740;37.544;2022-09-09T03:16:07;4.2;;;1.3;;
40048;SDS011;54524;55.740;37.544;2022-09-09T03:17:08;4.3;;;1.3;;
40048;SDS011;54524;55.740;37.544;2022-09-09T03:18:09;3.2;;;1.1;;
40048;SDS011;54524;55.740;37.544;2022-09-09T03:19:09;3.2;;;1.1;;
40048;SDS011;54524;55.740;37.544;2022-09-09T03:21:04;2.5;;;1;;
40048;SDS011;54524;55.740;37.544;2022-09-09T03:22:04;2.6;;;1;;
40048;SDS011;54524;55.740;37.544;2022-09-09T03:23:05;3;;;1;;
40048;SDS011;54524;55.740;37.544;2022-09-09T03:24:05;4.3;;;1;;
40048;SDS011;54524;55.740;37.544;2022-09-09T03:25:07;4.4;;;1.1;;
40048;SDS011;54524;55.740;37.544;2022-09-09T03:26:07;4.4;;;1.1;;
40048;SDS011;54524;55.740;37.544;2022-09-09T03:27:08;2.8;;;0.9;;
40048;SDS011;54524;55.740;37.544;2022-09-09T03:28:09;2.8;;;0.9;;
40048;SDS011;54524;55.740;37.544;2022-09-09T03:29:09;2.9;;;0.9;;
40048;SDS011;54524;55.740;37.544;2022-09-09T03:31:04;0;;;0;;
40048;SDS011;54524;55.740;37.544;2022-09-09T03:32:05;3.9;;;1;;
40048;SDS011;54524;55.740;37.544;2022-09-09T03:33:05;4.1;;;1;;
40048;SDS011;54524;55.740;37.544;2022-09-09T03:34:06;3.4;;;1;;
40048;SDS011;54524;55.740;37.544;2022-09-09T03:35:07;3.4;;;1;;
40048;SDS011;54524;55.740;37.544;2022-09-09T03:36:08;3.4;;;1;;
40048;SDS011;54524;55.740;37.544;2022-09-09T03:37:09;2.9;;;1;;
40048;SDS011;54524;55.740;37.544;2022-09-09T03:38:09;3;;;1;;
40048;SDS011;54524;55.740;37.544;2022-09-09T03:39:10;3;;;1;;
40048;SDS011;54524;55.740;37.544;2022-09-09T03:41:03;3.8;;;1.3;;
40048;SDS011;54524;55.740;37.544;2022-09-09T03:42:06;3.9;;;1.4;;
40048;SDS011;54524;55.740;37.544;2022-09-09T03:43:07;3.5;;;1.2;;
40048;SDS011;54524;55.740;37.544;2022-09-09T03:44:07;3.5;;;1.2;;
40048;SDS011;54524;55.740;37.544;2022-09-09T03:45:08;3.8;;;1.2;;
40048;SDS011;54524;55.740;37.544;2022-09-09T03:46:09;2;;;1.1;;
40048;SDS011;54524;55.740;37.544;2022-09-09T03:47:10;1.9;;;1.1;;
40048;SDS011;54524;55.740;37.544;2022-09-09T03:48:11;1.9;;;1.1;;
40048;SDS011;54524;55.740;37.544;2022-09-09T03:49:12;3.7;;;1.2;;
40048;SDS011;54524;55.740;37.544;2022-09-09T03:51:03;3.2;;;1.1;;
40048;SDS011;54524;55.740;37.544;2022-09-09T03:52:03;2;;;1.1;;
40048;SDS011;54524;55.740;37.544;2022-09-09T03:53:04;2;;;1.1;;
40048;SDS011;54524;55.740;37.544;2022-09-09T03:54:06;2;;;1.1;;
40048;SDS011;54524;55.740;37.544;2022-09-09T03:55:08;3;;;1;;
40048;SDS011;54524;55.740;37.544;2022-09-09T03:56:09;1.9;;;1;;
40048;SDS011;54524;55.740;37.544;2022-09-09T03:57:10;1.9;;;1;;
40048;SDS011;54524;55.740;37.544;2022-09-09T03:58:11;3.9;;;1.1;;
40048;SDS011;54524;55.740;37.544;2022-09-09T03:59:12;3.9;;;1.1;;
40048;SDS011;54524;55.740;37.544;2022-09-09T04:01:04;3.9;;;1.1;;
40048;SDS011;54524;55.740;37.544;2022-09-09T04:02:05;4.2;;;1.2;;
40048;SDS011;54524;55.740;37.544;2022-09-09T04:03:05;3.8;;;1.1;;
40048;SDS011;54524;55.740;37.544;2022-09-09T04:04:06;3.9;;;1.1;;
40048;SDS011;54524;55.740;37.544;2022-09-09T04:05:08;0;;;0;;
40048;SDS011;54524;55.740;37.544;2022-09-09T04:06:08;3;;;1.4;;
40048;SDS011;54524;55.740;37.544;2022-09-09T04:07:11;2.4;;;1.3;;
40048;SDS011;54524;55.740;37.544;2022-09-09T04:08:12;3.9;;;1.4;;
40048;SDS011;54524;55.740;37.544;2022-09-09T04:09:12;3.9;;;1.4;;
40048;SDS011;54524;55.740;37.544;2022-09-09T04:11:02;4.5;;;1.4;;
40048;SDS011;54524;55.740;37.544;2022-09-09T04:12:06;4.5;;;1.4;;
40048;SDS011;54524;55.740;37.544;2022-09-09T04:13:07;4.5;;;1.4;;
40048;SDS011;54524;55.740;37.544;2022-09-09T04:14:07;4.7;;;1.1;;
40048;SDS011;54524;55.740;37.544;2022-09-09T04:15:09;4.9;;;1.2;;
40048;SDS011;54524;55.740;37.544;2022-09-09T04:16:11;4.7;;;1.2;;
40048;SDS011;54524;55.740;37.544;2022-09-09T04:17:13;3;;;1.5;;
40048;SDS011;54524;55.740;37.544;2022-09-09T04:18:14;2.9;;;1.5;;
40048;SDS011;54524;55.740;37.544;2022-09-09T04:19:15;2.8;;;1.5;;
40048;SDS011;54524;55.740;37.544;2022-09-09T04:21:03;4.1;;;1.4;;
40048;SDS011;54524;55.740;37.544;2022-09-09T04:22:04;4;;;1.4;;
40048;SDS011;54524;55.740;37.544;2022-09-09T04:23:05;4.3;;;1.5;;
40048;SDS011;54524;55.740;37.544;2022-09-09T04:24:06;4.3;;;1.5;;
40048;SDS011;54524;55.740;37.544;2022-09-09T04:25:07;4.1;;;1.5;;
40048;SDS011;54524;55.740;37.544;2022-09-09T04:26:08;4;;;1.5;;
40048;SDS011;54524;55.740;37.544;2022-09-09T04:27:09;4.2;;;1.5;;
40048;SDS011;54524;55.740;37.544;2022-09-09T04:28:10;3.7;;;1.6;;
40048;SDS011;54524;55.740;37.544;2022-09-09T04:29:10;4.1;;;1.4;;
40048;SDS011;54524;55.740;37.544;2022-09-09T04:31:04;3.1;;;1.4;;
40048;SDS011;54524;55.740;37.544;2022-09-09T04:32:05;1.9;;;1.1;;
40048;SDS011;54524;55.740;37.544;2022-09-09T04:33:05;1.9;;;1.1;;
40048;SDS011;54524;55.740;37.544;2022-09-09T04:34:06;1.8;;;1.1;;
40048;SDS011;54524;55.740;37.544;2022-09-09T04:35:07;2.4;;;1.3;;
40048;SDS011;54524;55.740;37.544;2022-09-09T04:36:07;2.5;;;1.3;;
40048;SDS011;54524;55.740;37.544;2022-09-09T04:37:09;2.5;;;1.3;;
40048;SDS011;54524;55.740;37.544;2022-09-09T04:38:09;3.8;;;1.3;;
40048;SDS011;54524;55.740;37.544;2022-09-09T04:39:10;3.7;;;1.3;;
40048;SDS011;54524;55.740;37.544;2022-09-09T04:41:03;6.30;;;1.20;;
40048;SDS011;54524;55.740;37.544;2022-09-09T04:42:04;2.7;;;1;;
40048;SDS011;54524;55.740;37.544;2022-09-09T04:43:04;2.8;;;1;;
40048;SDS011;54524;55.740;37.544;2022-09-09T04:44:05;2.8;;;1;;
40048;SDS011;54524;55.740;37.544;2022-09-09T04:45:06;2.4;;;1;;
40048;SDS011;54524;55.740;37.544;2022-09-09T04:46:08;2.4;;;1;;
40048;SDS011;54524;55.740;37.544;2022-09-09T04:47:09;2.3;;;1;;
40048;SDS011;54524;55.740;37.544;2022-09-09T04:48:09;3;;;0.7;;
40048;SDS011;54524;55.740;37.544;2022-09-09T04:49:10;3;;;0.8;;
40048;SDS011;54524;55.740;37.544;2022-09-09T04:51:04;1.7;;;0.8;;
40048;SDS011;54524;55.740;37.544;2022-09-09T04:52:05;1.7;;;0.8;;
40048;SDS011;54524;55.740;37.544;2022-09-09T04:53:05;1.7;;;0.7;;
40048;SDS011;54524;55.740;37.544;2022-09-09T04:54:06;1.7;;;0.9;;
40048;SDS011;54524;55.740;37.544;2022-09-09T04:55:07;1.5;;;0.9;;
40048;SDS011;54524;55.740;37.544;2022-09-09T04:56:08;1.6;;;0.9;;
40048;SDS011;54524;55.740;37.544;2022-09-09T04:57:11;2.5;;;0.7;;
40048;SDS011;54524;55.740;37.544;2022-09-09T04:58:11;2.5;;;0.7;;
40048;SDS011;54524;55.740;37.544;2022-09-09T04:59:12;2.5;;;0.7;;
40048;SDS011;54524;55.740;37.544;2022-09-09T05:01:04;4.3;;;1.4;;
40048;SDS011;54524;55.740;37.544;2022-09-09T05:02:04;4.2;;;1.4;;
40048;SDS011;54524;55.740;37.544;2022-09-09T05:03:05;2.3;;;1;;
40048;SDS011;54524;55.740;37.544;2022-09-09T05:04:06;2.3;;;1;;
40048;SDS011;54524;55.740;37.544;2022-09-09T05:05:06;2.3;;;1;;
40048;SDS011;54524;55.740;37.544;2022-09-09T05:06:08;2.2;;;0.9;;
40048;SDS011;54524;55.740;37.544;2022-09-09T05:07:09;2.2;;;0.9;;
40048;SDS011;54524;55.740;37.544;2022-09-09T05:08:10;2;;;0.8;;
40048;SDS011;54524;55.740;37.544;2022-09-09T05:09:11;4;;;1.1;;
40048;SDS011;54524;55.740;37.544;2022-09-09T05:11:03;4.3;;;1.1;;
40048;SDS011;54524;55.740;37.544;2022-09-09T05:12:04;1.2;;;0.8;;
40048;SDS011;54524;55.740;37.544;2022-09-09T05:13:04;1.2;;;0.8;;
40048;SDS011;54524;55.740;37.544;2022-09-09T05:14:05;1.2;;;0.8;;
40048;SDS011;54524;55.740;37.544;2022-09-09T05:15:06;3.1;;;1;;
40048;SDS011;54524;55.740;37.544;2022-09-09T05:16:07;3.1;;;1;;
40048;SDS011;54524;55.740;37.544;2022-09-09T05:17:09;3.3;;;1;;
40048;SDS011;54524;55.740;37.544;2022-09-09T05:18:09;5.6;;;1;;
40048;SDS011;54524;55.740;37.544;2022-09-09T05:19:10;5.6;;;1;;
40048;SDS011;54524;55.740;37.544;2022-09-09T05:21:03;1.2;;;0.7;;
40048;SDS011;54524;55.740;37.544;2022-09-09T05:22:03;1.2;;;0.7;;
40048;SDS011;54524;55.740;37.544;2022-09-09T05:23:05;1.1;;;0.7;;
40048;SDS011;54524;55.740;37.544;2022-09-09T05:24:05;2.7;;;1;;
40048;SDS011;54524;55.740;37.544;2022-09-09T05:25:06;2.7;;;1;;
40048;SDS011;54524;55.740;37.544;2022-09-09T05:26:09;2.7;;;1;;
40048;SDS011;54524;55.740;37.544;2022-09-09T05:27:12;1.8;;;0.9;;
40048;SDS011;54524;55.740;37.544;2022-09-09T05:28:12;1.8;;;0.9;;
40048;SDS011;54524;55.740;37.544;2022-09-09T05:29:13;1.7;;;0.9;;
40048;SDS011;54524;55.740;37.544;2022-09-09T05:31:03;2;;;0.8;;
40048;SDS011;54524;55.740;37.544;2022-09-09T05:32:04;1.9;;;0.8;;
40048;SDS011;54524;55.740;37.544;2022-09-09T05:33:05;2;;;0.8;;
40048;SDS011;54524;55.740;37.544;2022-09-09T05:34:06;1.9;;;0.9;;
40048;SDS011;54524;55.740;37.544;2022-09-09T05:35:07;1.7;;;0.9;;
40048;SDS011;54524;55.740;37.544;2022-09-09T05:36:08;2.2;;;0.9;;
40048;SDS011;54524;55.740;37.544;2022-09-09T05:37:11;3.5;;;0.8;;
40048;SDS011;54524;55.740;37.544;2022-09-09T05:38:11;4;;;0.7;;
40048;SDS011;54524;55.740;37.544;2022-09-09T05:39:12;4;;;0.7;;
40048;SDS011;54524;55.740;37.544;2022-09-09T05:41:02;1.8;;;0.6;;
40048;SDS011;54524;55.740;37.544;2022-09-09T05:42:03;1.7;;;0.6;;
40048;SDS011;54524;55.740;37.544;2022-09-09T05:43:04;2.5;;;0.8;;
40048;SDS011;54524;55.740;37.544;2022-09-09T05:44:05;3.1;;;0.8;;
40048;SDS011;54524;55.740;37.544;2022-09-09T05:45:06;3.4;;;0.8;;
40048;SDS011;54524;55.740;37.544;2022-09-09T05:46:08;2.8;;;0.7;;
40048;SDS011;54524;55.740;37.544;2022-09-09T05:47:10;1.9;;;0.6;;
40048;SDS011;54524;55.740;37.544;2022-09-09T05:48:10;1.8;;;0.6;;
40048;SDS011;54524;55.740;37.544;2022-09-09T05:49:11;1.8;;;0.6;;
40048;SDS011;54524;55.740;37.544;2022-09-09T05:51:03;6.30;;;1.20;;
40048;SDS011;54524;55.740;37.544;2022-09-09T05:52:03;6.30;;;1.20;;
40048;SDS011;54524;55.740;37.544;2022-09-09T05:53:04;6.30;;;1.20;;
40048;SDS011;54524;55.740;37.544;2022-09-09T05:54:04;6.30;;;1.20;;
40048;SDS011;54524;55.740;37.544;2022-09-09T05:55:05;6.30;;;1.20;;
40048;SDS011;54524;55.740;37.544;2022-09-09T05:56:07;6.30;;;1.20;;
40048;SDS011;54524;55.740;37.544;2022-09-09T05:57:11;6.30;;;1.20;;
40048;SDS011;54524;55.740;37.544;2022-09-09T05:58:12;6.30;;;1.20;;
40048;SDS011;54524;55.740;37.544;2022-09-09T05:59:12;6.30;;;1.20;;
40048;SDS011;54524;55.740;37.544;2022-09-09T06:01:04;6.30;;;1.20;;
40048;SDS011;54524;55.740;37.544;2022-09-09T06:02:04;6.30;;;1.20;;
40048;SDS011;54524;55.740;37.544;2022-09-09T06:03:05;6.30;;;1.20;;
40048;SDS011;54524;55.740;37.544;2022-09-09T06:04:06;6.30;;;1.20;;
40048;SDS011;54524;55.740;37.544;2022-09-09T06:05:06;6.30;;;1.20;;
40048;SDS011;54524;55.740;37.544;2022-09-09T06:06:09;6.30;;;1.20;;
40048;SDS011;54524;55.740;37.544;2022-09-09T06:07:11;6.30;;;1.20;;
40048;SDS011;54524;55.740;37.544;2022-09-09T06:08:11;6.30;;;1.20;;
40048;SDS011;54524;55.740;37.544;2022-09-09T06:09:12;6.30;;;1.20;;
40048;SDS011;54524;55.740;37.544;2022-09-09T06:11:04;6.30;;;1.20;;
40048;SDS011;54524;55.740;37.544;2022-09-09T06:12:05;6.30;;;1.20;;
40048;SDS011;54524;55.740;37.544;2022-09-09T06:13:05;6.30;;;1.20;;
40048;SDS011;54524;55.740;37.544;2022-09-09T06:14:06;6.30;;;1.20;;
40048;SDS011;54524;55.740;37.544;2022-09-09T06:15:07;6.30;;;1.20;;
40048;SDS011;54524;55.740;37.544;2022-09-09T06:16:09;6.30;;;1.20;;
40048;SDS011;54524;55.740;37.544;2022-09-09T06:17:12;6.30;;;1.20;;
40048;SDS011;54524;55.740;37.544;2022-09-09T06:18:12;6.30;;;1.20;;
40048;SDS011;54524;55.740;37.544;2022-09-09T06:19:13;6.30;;;1.20;;
40048;SDS011;54524;55.740;37.544;2022-09-09T06:21:04;6.30;;;1.20;;
40048;SDS011;54524;55.740;37.544;2022-09-09T06:22:04;6.30;;;1.20;;
40048;SDS011;54524;55.740;37.544;2022-09-09T06:23:05;6.30;;;1.20;;
40048;SDS011;54524;55.740;37.544;2022-09-09T06:24:06;6.30;;;1.20;;
40048;SDS011;54524;55.740;37.544;2022-09-09T06:25:08;6.30;;;1.20;;
40048;SDS011;54524;55.740;37.544;2022-09-09T06:26:09;6.30;;;1.20;;
40048;SDS011;54524;55.740;37.544;2022-09-09T06:27:10;6.30;;;1.20;;
40048;SDS011;54524;55.740;37.544;2022-09-09T06:28:13;6.30;;;1.20;;
40048;SDS011;54524;55.740;37.544;2022-09-09T06:29:14;6.30;;;1.20;;
40048;SDS011;54524;55.740;37.544;2022-09-09T06:31:04;6.30;;;1.20;;
40048;SDS011;54524;55.740;37.544;2022-09-09T06:32:04;6.30;;;1.20;;
40048;SDS011;54524;55.740;37.544;2022-09-09T06:33:05;6.30;;;1.20;;
40048;SDS011;54524;55.740;37.544;2022-09-09T06:34:06;6.30;;;1.20;;
40048;SDS011;54524;55.740;37.544;2022-09-09T06:35:07;6.30;;;1.20;;
40048;SDS011;54524;55.740;37.544;2022-09-09T06:36:10;6.30;;;1.20;;
40048;SDS011;54524;55.740;37.544;2022-09-09T06:37:12;6.30;;;1.20;;
40048;SDS011;54524;55.740;37.544;2022-09-09T06:38:13;6.30;;;1.20;;
40048;SDS011;54524;55.740;37.544;2022-09-09T06:39:13;6.30;;;1.20;;
40048;SDS011;54524;55.740;37.544;2022-09-09T06:41:03;6.30;;;1.20;;
40048;SDS011;54524;55.740;37.544;2022-09-09T06:42:05;6.30;;;1.20;;
40048;SDS011;54524;55.740;37.544;2022-09-09T06:43:08;6.30;;;1.20;;
40048;SDS011;54524;55.740;37.544;2022-09-09T06:44:09;6.30;;;1.20;;
40048;SDS011;54524;55.740;37.544;2022-09-09T06:45:11;6.30;;;1.20;;
40048;SDS011;54524;55.740;37.544;2022-09-09T06:46:12;6.30;;;1.20;;
40048;SDS011;54524;55.740;37.544;2022-09-09T06:47:14;6.30;;;1.20;;
40048;SDS011;54524;55.740;37.544;2022-09-09T06:48:14;6.30;;;1.20;;
40048;SDS011;54524;55.740;37.544;2022-09-09T06:49:15;6.30;;;1.20;;
40048;SDS011;54524;55.740;37.544;2022-09-09T06:51:03;6.30;;;1.20;;